Flight Track Log - Related Links

Times and Time Zones

All times are in EDT time to prevent confusion due to time zone crossing. See the EGF2888 flight status page for this flight to view local times or setup timezone preferences in your user account.

Time Position Orientation Groundspeed Altitude Reporting Facility
EDT Latitude Longitude Course Direction KTS MPH feet Rate Location/Type
Thu 11:20:06 AM 29.6086 -95.2708 149° Southeast 190 219 2,500  Level Houston Center
Thu 11:20:17 AM 29.6086 -95.2717 270° West 167 192 2,400 2,226 Descending Houston Center
Thu 11:21:08 AM 29.6733 -95.2678 North 248 285 4,800 2,419 Climbing Houston Center
Thu 11:21:19 AM 29.6861 -95.2681 359° North 234 269 4,900 295 Climbing Houston Center
Thu 11:22:09 AM 29.7486 -95.2875 345° North 287 330 5,100 97 Climbing Houston Center
Thu 11:22:21 AM 29.7631 -95.2925 343° North 276 318 5,000 1,180 Descending Houston Center
Thu 11:23:10 AM 29.8267 -95.3142 344° North 280 322 6,300 1,548 Climbing Houston Center
Thu 11:23:23 AM 29.8389 -95.3167 350° North 280 322 6,600 2,852 Climbing Houston Center
Thu 11:24:11 AM 29.9047 -95.3167 360° North 268 308 9,200 2,806 Climbing Houston Center
Thu 11:24:25 AM 29.9144 -95.3161 North 272 313 9,500 1,377 Climbing Houston Center
Thu 11:25:12 AM 29.9844 -95.3167 360° North 301 346 10,600 1,238 Climbing Houston Center
Thu 11:25:28 AM 29.9925 -95.3147 12° North 278 320 10,800 923 Climbing Houston Center
Thu 11:26:30 AM 30.0867 -95.3133 North 329 379 11,800 968 Climbing Houston Center
Thu 11:27:32 AM 30.1892 -95.3131 360° North 359 413 12,800 1,500 Climbing Houston Center
Thu 11:28:34 AM 30.3133 -95.3108 North 370 426 14,900 1,694 Climbing Houston Center
Thu 11:29:36 AM 30.4169 -95.3100 360° North 370 426 16,300 1,355 Climbing Houston Center
Thu 11:30:38 AM 30.5253 -95.3086 North 368 423 17,700 1,344 Climbing Houston Center
Thu 11:31:41 AM 30.6219 -95.3014 North 370 426 19,100 1,344 Climbing Houston Center
Thu 11:32:43 AM 30.7272 -95.2942 North 373 429 20,500 1,548 Climbing Houston Center
Thu 11:33:45 AM 30.8558 -95.2858 North 383 441 22,300 1,452 Climbing Houston Center
Thu 11:34:47 AM 30.9642 -95.2783 North 385 443 23,500 1,065 Climbing Houston Center
Thu 11:35:49 AM 31.0767 -95.2706 North 401 461 24,500 968 Climbing Houston Center
Thu 11:36:51 AM 31.1922 -95.2644 North 409 471 25,500 912 Climbing Houston Center
Thu 11:37:54 AM 31.3056 -95.2786 354° North 416 479 26,400 912 Climbing Houston Center
Thu 11:38:56 AM 31.3836 -95.3656 316° Northwest 399 459 27,400 932 Climbing Houston Center
Thu 11:39:37 AM 31.4494 -95.4378 317° Northwest 390 449 28,000 350 Climbing Fort Worth Center
Thu 11:40:39 AM 31.5347 -95.5272 318° Northwest 408 470 28,000  Level Fort Worth Center
Thu 11:41:41 AM 31.6236 -95.6194 319° Northwest 424 488 28,000 -48 Level Fort Worth Center
Thu 11:42:43 AM 31.7133 -95.7153 318° Northwest 434 499 27,900 -532 Descending Fort Worth Center
Thu 11:43:45 AM 31.8072 -95.8136 318° Northwest 449 517 26,900 -1,113 Descending Fort Worth Center
Thu 11:44:47 AM 31.9178 -95.9317 318° Northwest 449 517 25,600 -1,161 Descending Fort Worth Center
Thu 11:45:49 AM 32.0164 -96.0358 318° Northwest 447 514 24,500 -1,065 Descending Fort Worth Center
Thu 11:46:51 AM 32.1056 -96.1308 318° Northwest 438 504 23,400 -1,200 Descending Fort Worth Center
Thu 11:47:54 AM 32.1931 -96.2256 318° Northwest 431 496 22,000 -2,064 Descending Fort Worth Center
Thu 11:48:56 AM 32.2769 -96.3247 315° West 400 460 19,100 -2,806 Descending Fort Worth Center
Thu 11:49:58 AM 32.3608 -96.4217 316° Northwest 395 455 16,200 -2,806 Descending Fort Worth Center
Thu 11:51:00 AM 32.4372 -96.5131 315° West 393 452 13,300 -2,516 Descending Fort Worth Center
Thu 11:52:02 AM 32.5186 -96.6100 315° West 387 445 11,000 -1,113 Descending Fort Worth Center
Thu 11:53:04 AM 32.5925 -96.6978 315° West 378 435 11,000  Level Fort Worth Center
Thu 11:54:06 AM 32.6664 -96.7878 314° West 382 440 11,000  Level Fort Worth Center
Thu 11:55:08 AM 32.7347 -96.8678 315° West 315 362 11,000 -480 Level Fort Worth Center
Thu 11:56:11 AM 32.7978 -96.9039 334° Northwest 266 306 10,000 -1,488 Descending Fort Worth Center
Thu 11:57:13 AM 32.8781 -96.9044 360° North 266 306 7,900 -1,839 Descending Fort Worth Center
Thu 11:58:15 AM 32.9469 -96.9208 349° North 257 296 6,200 -1,694 Descending Fort Worth Center
Thu 11:59:17 AM 33.0169 -96.9425 345° North 244 281 4,400 -1,548 Descending Fort Worth Center
Thu 12:00:19 PM 33.0408 -97.0019 296° West 217 250 3,000 -968 Descending Fort Worth Center
Thu 12:01:21 PM 32.9936 -97.0453 218° Southwest 206 237 2,400 -823 Descending Fort Worth Center
Thu 12:02:23 PM 32.9469 -97.0542 189° South 167 192 1,300 -823 Descending Fort Worth Center
Thu 12:03:25 PM 32.9111 -97.0508 176° South 153 176 700 -581 Descending Fort Worth Center

Login

Don't have an account? Register now (free) for customized features, flight alerts, and more!